sensor_id;sensor_type;location;lat;lon;timestamp;P1;durP1;ratioP1;P2;durP2;ratioP2
11877;SDS011;5998;42.676;23.268;2023-12-22T00:01:09;46.33;;;27.97;;
11877;SDS011;5998;42.676;23.268;2023-12-22T00:03:36;129.20;;;38.33;;
11877;SDS011;5998;42.676;23.268;2023-12-22T00:06:03;58.43;;;31.13;;
11877;SDS011;5998;42.676;23.268;2023-12-22T00:08:30;51.70;;;32.27;;
11877;SDS011;5998;42.676;23.268;2023-12-22T00:10:57;50.53;;;30.53;;
11877;SDS011;5998;42.676;23.268;2023-12-22T00:13:24;44.97;;;29.97;;
11877;SDS011;5998;42.676;23.268;2023-12-22T00:15:52;46.00;;;30.53;;
11877;SDS011;5998;42.676;23.268;2023-12-22T00:18:18;43.73;;;30.77;;
11877;SDS011;5998;42.676;23.268;2023-12-22T00:20:45;46.97;;;29.90;;
11877;SDS011;5998;42.676;23.268;2023-12-22T00:23:12;157.27;;;39.33;;
11877;SDS011;5998;42.676;23.268;2023-12-22T00:25:39;47.13;;;29.40;;
11877;SDS011;5998;42.676;23.268;2023-12-22T00:28:05;44.60;;;29.93;;
11877;SDS011;5998;42.676;23.268;2023-12-22T00:30:32;49.33;;;29.53;;
11877;SDS011;5998;42.676;23.268;2023-12-22T00:33:00;49.50;;;31.23;;
11877;SDS011;5998;42.676;23.268;2023-12-22T00:35:27;48.57;;;30.97;;
11877;SDS011;5998;42.676;23.268;2023-12-22T00:37:54;55.93;;;30.47;;
11877;SDS011;5998;42.676;23.268;2023-12-22T00:40:21;45.60;;;29.70;;
11877;SDS011;5998;42.676;23.268;2023-12-22T00:42:47;46.83;;;30.17;;
11877;SDS011;5998;42.676;23.268;2023-12-22T00:45:14;42.83;;;27.50;;
11877;SDS011;5998;42.676;23.268;2023-12-22T00:47:41;43.77;;;27.33;;
11877;SDS011;5998;42.676;23.268;2023-12-22T00:50:09;35.13;;;22.67;;
11877;SDS011;5998;42.676;23.268;2023-12-22T00:52:36;30.53;;;20.27;;
11877;SDS011;5998;42.676;23.268;2023-12-22T00:55:03;29.77;;;19.70;;
11877;SDS011;5998;42.676;23.268;2023-12-22T00:57:30;34.87;;;20.40;;
11877;SDS011;5998;42.676;23.268;2023-12-22T00:59:56;31.27;;;19.87;;
11877;SDS011;5998;42.676;23.268;2023-12-22T01:02:23;30.77;;;19.57;;
11877;SDS011;5998;42.676;23.268;2023-12-22T01:04:50;27.77;;;18.30;;
11877;SDS011;5998;42.676;23.268;2023-12-22T01:07:18;30.43;;;18.53;;
11877;SDS011;5998;42.676;23.268;2023-12-22T01:09:44;31.70;;;19.57;;
11877;SDS011;5998;42.676;23.268;2023-12-22T01:12:11;26.40;;;18.20;;
11877;SDS011;5998;42.676;23.268;2023-12-22T01:14:38;28.90;;;19.20;;
11877;SDS011;5998;42.676;23.268;2023-12-22T01:17:04;30.23;;;18.50;;
11877;SDS011;5998;42.676;23.268;2023-12-22T01:19:32;29.63;;;19.57;;
11877;SDS011;5998;42.676;23.268;2023-12-22T01:21:59;31.30;;;19.40;;
11877;SDS011;5998;42.676;23.268;2023-12-22T01:24:27;27.43;;;18.37;;
11877;SDS011;5998;42.676;23.268;2023-12-22T01:26:54;26.13;;;18.37;;
11877;SDS011;5998;42.676;23.268;2023-12-22T01:29:20;29.40;;;19.53;;
11877;SDS011;5998;42.676;23.268;2023-12-22T01:31:47;27.20;;;18.70;;
11877;SDS011;5998;42.676;23.268;2023-12-22T01:34:14;29.57;;;19.23;;
11877;SDS011;5998;42.676;23.268;2023-12-22T01:36:40;27.63;;;19.07;;
11877;SDS011;5998;42.676;23.268;2023-12-22T01:39:07;29.83;;;17.30;;
11877;SDS011;5998;42.676;23.268;2023-12-22T01:41:35;27.77;;;17.57;;
11877;SDS011;5998;42.676;23.268;2023-12-22T01:44:02;26.70;;;17.93;;
11877;SDS011;5998;42.676;23.268;2023-12-22T01:46:29;27.27;;;17.57;;
11877;SDS011;5998;42.676;23.268;2023-12-22T01:48:56;27.80;;;18.23;;
11877;SDS011;5998;42.676;23.268;2023-12-22T01:51:22;26.97;;;16.37;;
11877;SDS011;5998;42.676;23.268;2023-12-22T01:53:49;28.10;;;17.67;;
11877;SDS011;5998;42.676;23.268;2023-12-22T01:56:17;23.40;;;16.30;;
11877;SDS011;5998;42.676;23.268;2023-12-22T01:58:46;24.07;;;16.13;;
11877;SDS011;5998;42.676;23.268;2023-12-22T02:01:13;27.03;;;17.17;;
11877;SDS011;5998;42.676;23.268;2023-12-22T02:03:40;25.40;;;16.53;;
11877;SDS011;5998;42.676;23.268;2023-12-22T02:06:07;27.40;;;16.43;;
11877;SDS011;5998;42.676;23.268;2023-12-22T02:08:33;22.30;;;13.13;;
11877;SDS011;5998;42.676;23.268;2023-12-22T02:11:01;22.93;;;15.23;;
11877;SDS011;5998;42.676;23.268;2023-12-22T02:13:28;22.93;;;15.27;;
11877;SDS011;5998;42.676;23.268;2023-12-22T02:15:59;21.27;;;13.73;;
11877;SDS011;5998;42.676;23.268;2023-12-22T02:18:31;25.20;;;15.63;;
11877;SDS011;5998;42.676;23.268;2023-12-22T02:21:01;22.00;;;15.50;;
11877;SDS011;5998;42.676;23.268;2023-12-22T02:23:30;22.80;;;14.27;;
11877;SDS011;5998;42.676;23.268;2023-12-22T02:25:57;25.70;;;16.63;;
11877;SDS011;5998;42.676;23.268;2023-12-22T02:28:32;23.10;;;15.17;;
11877;SDS011;5998;42.676;23.268;2023-12-22T02:31:02;23.47;;;15.40;;
11877;SDS011;5998;42.676;23.268;2023-12-22T02:33:36;22.13;;;14.60;;
11877;SDS011;5998;42.676;23.268;2023-12-22T02:36:03;17.40;;;11.53;;
11877;SDS011;5998;42.676;23.268;2023-12-22T02:38:34;23.03;;;15.17;;
11877;SDS011;5998;42.676;23.268;2023-12-22T02:41:01;22.97;;;14.73;;
11877;SDS011;5998;42.676;23.268;2023-12-22T02:43:28;21.60;;;13.27;;
11877;SDS011;5998;42.676;23.268;2023-12-22T02:45:55;21.50;;;14.97;;
11877;SDS011;5998;42.676;23.268;2023-12-22T02:48:22;19.63;;;13.53;;
11877;SDS011;5998;42.676;23.268;2023-12-22T02:50:49;19.00;;;13.27;;
11877;SDS011;5998;42.676;23.268;2023-12-22T02:53:15;24.87;;;13.83;;
11877;SDS011;5998;42.676;23.268;2023-12-22T02:55:43;23.57;;;14.23;;
11877;SDS011;5998;42.676;23.268;2023-12-22T02:58:10;20.77;;;13.67;;
11877;SDS011;5998;42.676;23.268;2023-12-22T03:00:37;19.67;;;12.80;;
11877;SDS011;5998;42.676;23.268;2023-12-22T03:03:03;19.37;;;13.20;;
11877;SDS011;5998;42.676;23.268;2023-12-22T03:05:30;19.60;;;12.57;;
11877;SDS011;5998;42.676;23.268;2023-12-22T03:07:57;17.23;;;10.13;;
11877;SDS011;5998;42.676;23.268;2023-12-22T03:10:23;23.63;;;13.57;;
11877;SDS011;5998;42.676;23.268;2023-12-22T03:12:52;17.87;;;12.37;;
11877;SDS011;5998;42.676;23.268;2023-12-22T03:15:18;19.77;;;12.90;;
11877;SDS011;5998;42.676;23.268;2023-12-22T03:17:45;21.33;;;14.20;;
11877;SDS011;5998;42.676;23.268;2023-12-22T03:20:12;19.50;;;11.60;;
11877;SDS011;5998;42.676;23.268;2023-12-22T03:22:38;20.60;;;13.70;;
11877;SDS011;5998;42.676;23.268;2023-12-22T03:25:05;21.73;;;15.23;;
11877;SDS011;5998;42.676;23.268;2023-12-22T03:27:32;21.27;;;13.43;;
11877;SDS011;5998;42.676;23.268;2023-12-22T03:30:00;19.30;;;13.77;;
11877;SDS011;5998;42.676;23.268;2023-12-22T03:32:28;25.60;;;15.27;;
11877;SDS011;5998;42.676;23.268;2023-12-22T03:34:55;24.07;;;15.97;;
11877;SDS011;5998;42.676;23.268;2023-12-22T03:37:22;26.47;;;17.07;;
11877;SDS011;5998;42.676;23.268;2023-12-22T03:39:48;28.30;;;15.63;;
11877;SDS011;5998;42.676;23.268;2023-12-22T03:42:15;22.67;;;15.83;;
11877;SDS011;5998;42.676;23.268;2023-12-22T03:44:42;23.53;;;15.83;;
11877;SDS011;5998;42.676;23.268;2023-12-22T03:47:10;22.07;;;15.17;;
11877;SDS011;5998;42.676;23.268;2023-12-22T03:49:36;18.00;;;12.50;;
11877;SDS011;5998;42.676;23.268;2023-12-22T03:52:03;21.70;;;15.00;;
11877;SDS011;5998;42.676;23.268;2023-12-22T03:54:30;25.07;;;15.23;;
11877;SDS011;5998;42.676;23.268;2023-12-22T03:56:56;21.87;;;16.03;;
11877;SDS011;5998;42.676;23.268;2023-12-22T03:59:23;25.17;;;14.97;;
11877;SDS011;5998;42.676;23.268;2023-12-22T04:01:50;21.17;;;15.33;;
11877;SDS011;5998;42.676;23.268;2023-12-22T04:04:20;23.77;;;15.13;;
11877;SDS011;5998;42.676;23.268;2023-12-22T04:06:48;26.63;;;16.27;;
11877;SDS011;5998;42.676;23.268;2023-12-22T04:09:14;27.37;;;16.13;;
11877;SDS011;5998;42.676;23.268;2023-12-22T04:11:41;19.63;;;14.63;;
11877;SDS011;5998;42.676;23.268;2023-12-22T04:14:08;24.07;;;15.10;;
11877;SDS011;5998;42.676;23.268;2023-12-22T04:16:36;23.23;;;15.03;;
11877;SDS011;5998;42.676;23.268;2023-12-22T04:19:03;21.00;;;13.90;;
11877;SDS011;5998;42.676;23.268;2023-12-22T04:21:31;21.23;;;15.53;;
11877;SDS011;5998;42.676;23.268;2023-12-22T04:23:57;23.10;;;15.60;;
11877;SDS011;5998;42.676;23.268;2023-12-22T04:26:24;21.23;;;14.63;;
11877;SDS011;5998;42.676;23.268;2023-12-22T04:28:51;23.77;;;15.47;;
11877;SDS011;5998;42.676;23.268;2023-12-22T04:31:17;29.60;;;16.43;;
11877;SDS011;5998;42.676;23.268;2023-12-22T04:33:44;20.50;;;13.63;;
11877;SDS011;5998;42.676;23.268;2023-12-22T04:36:11;19.83;;;14.70;;
11877;SDS011;5998;42.676;23.268;2023-12-22T04:38:39;22.07;;;14.93;;
11877;SDS011;5998;42.676;23.268;2023-12-22T04:41:06;20.37;;;14.77;;
11877;SDS011;5998;42.676;23.268;2023-12-22T04:43:33;25.03;;;15.57;;
11877;SDS011;5998;42.676;23.268;2023-12-22T04:46:00;21.80;;;15.77;;
11877;SDS011;5998;42.676;23.268;2023-12-22T04:48:26;24.20;;;16.07;;
11877;SDS011;5998;42.676;23.268;2023-12-22T04:50:53;33.53;;;17.30;;
11877;SDS011;5998;42.676;23.268;2023-12-22T04:53:20;22.07;;;15.47;;
11877;SDS011;5998;42.676;23.268;2023-12-22T04:55:48;24.43;;;15.67;;
11877;SDS011;5998;42.676;23.268;2023-12-22T04:58:15;27.17;;;17.97;;
11877;SDS011;5998;42.676;23.268;2023-12-22T05:00:42;24.00;;;14.57;;
11877;SDS011;5998;42.676;23.268;2023-12-22T05:03:09;29.10;;;17.97;;
11877;SDS011;5998;42.676;23.268;2023-12-22T05:05:35;25.27;;;14.50;;
11877;SDS011;5998;42.676;23.268;2023-12-22T05:08:02;24.27;;;16.97;;
11877;SDS011;5998;42.676;23.268;2023-12-22T05:10:29;30.70;;;19.67;;
11877;SDS011;5998;42.676;23.268;2023-12-22T05:12:57;26.43;;;17.53;;
11877;SDS011;5998;42.676;23.268;2023-12-22T05:15:24;26.23;;;16.37;;
11877;SDS011;5998;42.676;23.268;2023-12-22T05:17:51;22.60;;;15.37;;
11877;SDS011;5998;42.676;23.268;2023-12-22T05:20:18;22.40;;;14.33;;
11877;SDS011;5998;42.676;23.268;2023-12-22T05:22:45;25.20;;;16.50;;
11877;SDS011;5998;42.676;23.268;2023-12-22T05:25:12;17.30;;;12.00;;
11877;SDS011;5998;42.676;23.268;2023-12-22T05:27:39;18.00;;;13.47;;
11877;SDS011;5998;42.676;23.268;2023-12-22T05:30:09;21.13;;;12.97;;
11877;SDS011;5998;42.676;23.268;2023-12-22T05:32:37;19.53;;;12.20;;
11877;SDS011;5998;42.676;23.268;2023-12-22T05:35:04;18.80;;;12.60;;
11877;SDS011;5998;42.676;23.268;2023-12-22T05:37:31;10.47;;;7.43;;
11877;SDS011;5998;42.676;23.268;2023-12-22T05:39:58;9.53;;;7.10;;
11877;SDS011;5998;42.676;23.268;2023-12-22T05:42:25;4.33;;;3.70;;
11877;SDS011;5998;42.676;23.268;2023-12-22T05:44:51;2.60;;;2.23;;
11877;SDS011;5998;42.676;23.268;2023-12-22T05:47:20;2.10;;;1.90;;
11877;SDS011;5998;42.676;23.268;2023-12-22T05:49:46;6.53;;;5.13;;
11877;SDS011;5998;42.676;23.268;2023-12-22T05:52:13;8.17;;;6.30;;
11877;SDS011;5998;42.676;23.268;2023-12-22T05:54:40;11.83;;;9.37;;
11877;SDS011;5998;42.676;23.268;2023-12-22T05:57:06;12.40;;;9.40;;
11877;SDS011;5998;42.676;23.268;2023-12-22T05:59:32;13.73;;;10.43;;
11877;SDS011;5998;42.676;23.268;2023-12-22T06:01:59;14.83;;;11.13;;
11877;SDS011;5998;42.676;23.268;2023-12-22T06:04:29;14.63;;;10.53;;
11877;SDS011;5998;42.676;23.268;2023-12-22T06:06:55;13.73;;;10.70;;
11877;SDS011;5998;42.676;23.268;2023-12-22T06:09:22;16.53;;;10.10;;
11877;SDS011;5998;42.676;23.268;2023-12-22T06:11:49;16.90;;;11.73;;
11877;SDS011;5998;42.676;23.268;2023-12-22T06:14:15;14.77;;;9.00;;
11877;SDS011;5998;42.676;23.268;2023-12-22T06:16:42;14.03;;;10.23;;
11877;SDS011;5998;42.676;23.268;2023-12-22T06:19:09;14.77;;;10.80;;
11877;SDS011;5998;42.676;23.268;2023-12-22T06:21:39;18.33;;;12.30;;
11877;SDS011;5998;42.676;23.268;2023-12-22T06:24:06;18.50;;;12.20;;
11877;SDS011;5998;42.676;23.268;2023-12-22T06:26:34;15.40;;;10.10;;
11877;SDS011;5998;42.676;23.268;2023-12-22T06:29:00;17.07;;;12.17;;
11877;SDS011;5998;42.676;23.268;2023-12-22T06:31:28;16.50;;;12.50;;
11877;SDS011;5998;42.676;23.268;2023-12-22T06:33:55;19.63;;;11.93;;
11877;SDS011;5998;42.676;23.268;2023-12-22T06:36:25;18.93;;;12.07;;
11877;SDS011;5998;42.676;23.268;2023-12-22T06:38:54;16.03;;;11.90;;
11877;SDS011;5998;42.676;23.268;2023-12-22T06:41:21;18.70;;;11.83;;
11877;SDS011;5998;42.676;23.268;2023-12-22T06:43:49;15.47;;;11.60;;
11877;SDS011;5998;42.676;23.268;2023-12-22T06:46:16;21.17;;;11.43;;
11877;SDS011;5998;42.676;23.268;2023-12-22T06:48:42;16.03;;;11.43;;
11877;SDS011;5998;42.676;23.268;2023-12-22T06:51:16;16.00;;;11.90;;
11877;SDS011;5998;42.676;23.268;2023-12-22T06:53:44;15.77;;;10.83;;
11877;SDS011;5998;42.676;23.268;2023-12-22T06:56:15;15.97;;;11.17;;
11877;SDS011;5998;42.676;23.268;2023-12-22T06:58:43;17.43;;;11.37;;
11877;SDS011;5998;42.676;23.268;2023-12-22T07:01:11;17.63;;;11.63;;
11877;SDS011;5998;42.676;23.268;2023-12-22T07:03:38;15.80;;;11.33;;
11877;SDS011;5998;42.676;23.268;2023-12-22T07:06:04;19.00;;;12.20;;
11877;SDS011;5998;42.676;23.268;2023-12-22T07:08:31;17.57;;;12.70;;
11877;SDS011;5998;42.676;23.268;2023-12-22T07:10:58;14.70;;;10.70;;
11877;SDS011;5998;42.676;23.268;2023-12-22T07:13:26;15.33;;;11.67;;
11877;SDS011;5998;42.676;23.268;2023-12-22T07:15:53;14.37;;;11.53;;
11877;SDS011;5998;42.676;23.268;2023-12-22T07:18:19;22.03;;;15.57;;
11877;SDS011;5998;42.676;23.268;2023-12-22T07:20:46;18.20;;;12.70;;
11877;SDS011;5998;42.676;23.268;2023-12-22T07:23:13;16.53;;;12.33;;
11877;SDS011;5998;42.676;23.268;2023-12-22T07:25:40;18.90;;;13.07;;
11877;SDS011;5998;42.676;23.268;2023-12-22T07:28:07;16.73;;;12.13;;
11877;SDS011;5998;42.676;23.268;2023-12-22T07:30:35;18.10;;;12.57;;
11877;SDS011;5998;42.676;23.268;2023-12-22T07:33:02;15.43;;;11.30;;
11877;SDS011;5998;42.676;23.268;2023-12-22T07:35:29;19.13;;;11.93;;
11877;SDS011;5998;42.676;23.268;2023-12-22T07:37:55;21.37;;;14.03;;
11877;SDS011;5998;42.676;23.268;2023-12-22T07:40:22;18.40;;;13.90;;
11877;SDS011;5998;42.676;23.268;2023-12-22T07:42:49;18.50;;;13.23;;
11877;SDS011;5998;42.676;23.268;2023-12-22T07:45:16;17.33;;;13.23;;
11877;SDS011;5998;42.676;23.268;2023-12-22T07:47:44;18.43;;;12.90;;
11877;SDS011;5998;42.676;23.268;2023-12-22T07:50:11;20.37;;;13.90;;
11877;SDS011;5998;42.676;23.268;2023-12-22T07:52:38;21.57;;;12.40;;
11877;SDS011;5998;42.676;23.268;2023-12-22T07:55:05;18.97;;;12.70;;
11877;SDS011;5998;42.676;23.268;2023-12-22T07:57:34;21.90;;;12.10;;
11877;SDS011;5998;42.676;23.268;2023-12-22T08:00:01;21.90;;;15.00;;
11877;SDS011;5998;42.676;23.268;2023-12-22T08:02:28;19.13;;;14.13;;
11877;SDS011;5998;42.676;23.268;2023-12-22T08:04:56;18.17;;;12.57;;
11877;SDS011;5998;42.676;23.268;2023-12-22T08:07:23;18.63;;;12.93;;
11877;SDS011;5998;42.676;23.268;2023-12-22T08:09:50;19.27;;;13.93;;
11877;SDS011;5998;42.676;23.268;2023-12-22T08:12:16;18.63;;;13.40;;
11877;SDS011;5998;42.676;23.268;2023-12-22T08:14:43;19.17;;;13.73;;
11877;SDS011;5998;42.676;23.268;2023-12-22T08:17:10;18.60;;;12.80;;
11877;SDS011;5998;42.676;23.268;2023-12-22T08:19:38;25.10;;;14.03;;
11877;SDS011;5998;42.676;23.268;2023-12-22T08:22:09;21.17;;;13.47;;
11877;SDS011;5998;42.676;23.268;2023-12-22T08:24:35;19.30;;;13.43;;
11877;SDS011;5998;42.676;23.268;2023-12-22T08:27:03;20.10;;;13.10;;
11877;SDS011;5998;42.676;23.268;2023-12-22T08:29:29;16.10;;;11.03;;
11877;SDS011;5998;42.676;23.268;2023-12-22T08:31:56;21.07;;;14.10;;
11877;SDS011;5998;42.676;23.268;2023-12-22T08:34:23;19.00;;;14.47;;
11877;SDS011;5998;42.676;23.268;2023-12-22T08:36:50;24.47;;;14.53;;
11877;SDS011;5998;42.676;23.268;2023-12-22T08:39:18;22.23;;;14.70;;
11877;SDS011;5998;42.676;23.268;2023-12-22T08:41:44;22.83;;;14.87;;
11877;SDS011;5998;42.676;23.268;2023-12-22T08:44:12;15.90;;;11.03;;
11877;SDS011;5998;42.676;23.268;2023-12-22T08:46:39;21.40;;;15.27;;
11877;SDS011;5998;42.676;23.268;2023-12-22T08:49:06;21.63;;;14.87;;
11877;SDS011;5998;42.676;23.268;2023-12-22T08:51:33;19.83;;;15.30;;
11877;SDS011;5998;42.676;23.268;2023-12-22T08:54:00;27.10;;;17.40;;
11877;SDS011;5998;42.676;23.268;2023-12-22T08:56:30;28.90;;;17.90;;
11877;SDS011;5998;42.676;23.268;2023-12-22T08:58:57;27.63;;;18.83;;
11877;SDS011;5998;42.676;23.268;2023-12-22T09:01:24;25.40;;;18.50;;
11877;SDS011;5998;42.676;23.268;2023-12-22T09:03:51;29.07;;;19.83;;
11877;SDS011;5998;42.676;23.268;2023-12-22T09:06:18;28.83;;;20.43;;
11877;SDS011;5998;42.676;23.268;2023-12-22T09:08:46;41.83;;;24.67;;
11877;SDS011;5998;42.676;23.268;2023-12-22T09:11:13;31.57;;;22.87;;
11877;SDS011;5998;42.676;23.268;2023-12-22T09:13:43;32.77;;;22.70;;
11877;SDS011;5998;42.676;23.268;2023-12-22T09:16:11;36.67;;;22.80;;
11877;SDS011;5998;42.676;23.268;2023-12-22T09:18:40;36.73;;;23.57;;
11877;SDS011;5998;42.676;23.268;2023-12-22T09:21:07;92.53;;;27.80;;
11877;SDS011;5998;42.676;23.268;2023-12-22T09:23:34;60.30;;;26.73;;
11877;SDS011;5998;42.676;23.268;2023-12-22T09:26:01;41.77;;;27.10;;
11877;SDS011;5998;42.676;23.268;2023-12-22T09:28:27;37.03;;;25.50;;
11877;SDS011;5998;42.676;23.268;2023-12-22T09:30:55;36.77;;;25.13;;
11877;SDS011;5998;42.676;23.268;2023-12-22T09:33:22;26.97;;;17.87;;
11877;SDS011;5998;42.676;23.268;2023-12-22T09:35:48;40.33;;;22.53;;
11877;SDS011;5998;42.676;23.268;2023-12-22T09:38:16;33.37;;;23.10;;
11877;SDS011;5998;42.676;23.268;2023-12-22T09:40:42;36.17;;;25.20;;
11877;SDS011;5998;42.676;23.268;2023-12-22T09:43:09;35.73;;;23.73;;
11877;SDS011;5998;42.676;23.268;2023-12-22T09:45:40;31.37;;;22.50;;
11877;SDS011;5998;42.676;23.268;2023-12-22T09:48:09;33.10;;;20.80;;
11877;SDS011;5998;42.676;23.268;2023-12-22T09:50:42;21.77;;;15.87;;
11877;SDS011;5998;42.676;23.268;2023-12-22T09:53:09;22.67;;;15.90;;
11877;SDS011;5998;42.676;23.268;2023-12-22T09:55:38;24.70;;;17.43;;
11877;SDS011;5998;42.676;23.268;2023-12-22T09:58:06;6.40;;;4.30;;
11877;SDS011;5998;42.676;23.268;2023-12-22T10:00:34;3.63;;;3.20;;
11877;SDS011;5998;42.676;23.268;2023-12-22T10:03:03;3.47;;;2.33;;
11877;SDS011;5998;42.676;23.268;2023-12-22T10:05:33;2.40;;;1.70;;
11877;SDS011;5998;42.676;23.268;2023-12-22T10:08:00;2.93;;;2.30;;
11877;SDS011;5998;42.676;23.268;2023-12-22T10:10:27;2.33;;;2.13;;
11877;SDS011;5998;42.676;23.268;2023-12-22T10:12:55;1.83;;;1.73;;
11877;SDS011;5998;42.676;23.268;2023-12-22T10:15:23;3.23;;;2.73;;
11877;SDS011;5998;42.676;23.268;2023-12-22T10:17:50;12.83;;;9.43;;
11877;SDS011;5998;42.676;23.268;2023-12-22T10:20:17;28.83;;;20.17;;
11877;SDS011;5998;42.676;23.268;2023-12-22T10:22:45;42.17;;;26.83;;
11877;SDS011;5998;42.676;23.268;2023-12-22T10:25:14;41.73;;;24.63;;
11877;SDS011;5998;42.676;23.268;2023-12-22T10:27:41;25.10;;;17.83;;
11877;SDS011;5998;42.676;23.268;2023-12-22T10:30:09;10.80;;;8.10;;
11877;SDS011;5998;42.676;23.268;2023-12-22T10:32:39;10.70;;;7.07;;
11877;SDS011;5998;42.676;23.268;2023-12-22T10:35:07;8.57;;;6.67;;
11877;SDS011;5998;42.676;23.268;2023-12-22T10:37:34;12.43;;;6.60;;
11877;SDS011;5998;42.676;23.268;2023-12-22T10:40:05;8.53;;;6.57;;
11877;SDS011;5998;42.676;23.268;2023-12-22T10:42:32;7.23;;;5.37;;
11877;SDS011;5998;42.676;23.268;2023-12-22T10:45:00;2.73;;;2.53;;
11877;SDS011;5998;42.676;23.268;2023-12-22T10:47:27;2.30;;;2.10;;
11877;SDS011;5998;42.676;23.268;2023-12-22T10:49:54;2.00;;;1.90;;
11877;SDS011;5998;42.676;23.268;2023-12-22T10:52:21;4.97;;;2.47;;
11877;SDS011;5998;42.676;23.268;2023-12-22T10:54:48;1.70;;;1.60;;
11877;SDS011;5998;42.676;23.268;2023-12-22T10:57:18;2.10;;;1.70;;
11877;SDS011;5998;42.676;23.268;2023-12-22T10:59:45;4.30;;;2.20;;
11877;SDS011;5998;42.676;23.268;2023-12-22T11:02:15;4.43;;;2.57;;
11877;SDS011;5998;42.676;23.268;2023-12-22T11:04:45;4.13;;;2.70;;
11877;SDS011;5998;42.676;23.268;2023-12-22T11:07:19;3.07;;;1.93;;
11877;SDS011;5998;42.676;23.268;2023-12-22T11:09:50;2.03;;;1.60;;
11877;SDS011;5998;42.676;23.268;2023-12-22T11:12:21;2.27;;;1.83;;
11877;SDS011;5998;42.676;23.268;2023-12-22T11:14:49;1.93;;;1.70;;
11877;SDS011;5998;42.676;23.268;2023-12-22T11:17:18;2.03;;;1.70;;
11877;SDS011;5998;42.676;23.268;2023-12-22T11:19:47;2.30;;;1.73;;
11877;SDS011;5998;42.676;23.268;2023-12-22T11:22:17;2.00;;;1.60;;
11877;SDS011;5998;42.676;23.268;2023-12-22T11:24:45;1.40;;;1.30;;
11877;SDS011;5998;42.676;23.268;2023-12-22T11:27:12;2.67;;;1.57;;
11877;SDS011;5998;42.676;23.268;2023-12-22T11:29:44;4.47;;;1.73;;
11877;SDS011;5998;42.676;23.268;2023-12-22T11:32:13;1.43;;;1.33;;
11877;SDS011;5998;42.676;23.268;2023-12-22T11:34:43;1.13;;;1.13;;
11877;SDS011;5998;42.676;23.268;2023-12-22T11:37:11;1.93;;;1.40;;
11877;SDS011;5998;42.676;23.268;2023-12-22T11:39:38;1.30;;;1.20;;
11877;SDS011;5998;42.676;23.268;2023-12-22T11:42:05;2.10;;;1.67;;
11877;SDS011;5998;42.676;23.268;2023-12-22T11:44:35;1.43;;;1.33;;
11877;SDS011;5998;42.676;23.268;2023-12-22T11:47:04;2.70;;;1.93;;
11877;SDS011;5998;42.676;23.268;2023-12-22T11:49:32;1.83;;;1.50;;
11877;SDS011;5998;42.676;23.268;2023-12-22T11:51:59;2.13;;;1.30;;
11877;SDS011;5998;42.676;23.268;2023-12-22T11:54:44;1.50;;;1.20;;
11877;SDS011;5998;42.676;23.268;2023-12-22T12:00:02;2.30;;;1.43;;
11877;SDS011;5998;42.676;23.268;2023-12-22T12:02:34;1.77;;;1.57;;
11877;SDS011;5998;42.676;23.268;2023-12-22T12:05:03;1.53;;;1.30;;
11877;SDS011;5998;42.676;23.268;2023-12-22T12:07:37;3.30;;;1.90;;
11877;SDS011;5998;42.676;23.268;2023-12-22T12:10:05;1.10;;;1.00;;
11877;SDS011;5998;42.676;23.268;2023-12-22T12:12:33;1.40;;;1.27;;
11877;SDS011;5998;42.676;23.268;2023-12-22T12:15:06;1.50;;;1.40;;
11877;SDS011;5998;42.676;23.268;2023-12-22T12:17:38;1.40;;;1.20;;
11877;SDS011;5998;42.676;23.268;2023-12-22T12:20:06;1.00;;;1.00;;
11877;SDS011;5998;42.676;23.268;2023-12-22T12:22:34;2.23;;;1.73;;
11877;SDS011;5998;42.676;23.268;2023-12-22T12:25:03;1.60;;;1.50;;
11877;SDS011;5998;42.676;23.268;2023-12-22T12:27:34;2.20;;;1.77;;
11877;SDS011;5998;42.676;23.268;2023-12-22T12:30:06;2.87;;;1.97;;
11877;SDS011;5998;42.676;23.268;2023-12-22T12:32:39;2.20;;;1.07;;
11877;SDS011;5998;42.676;23.268;2023-12-22T12:35:08;3.63;;;1.60;;
11877;SDS011;5998;42.676;23.268;2023-12-22T12:37:35;3.27;;;2.00;;
11877;SDS011;5998;42.676;23.268;2023-12-22T12:40:03;2.83;;;1.90;;
11877;SDS011;5998;42.676;23.268;2023-12-22T12:42:34;1.90;;;1.50;;
11877;SDS011;5998;42.676;23.268;2023-12-22T12:45:02;2.83;;;1.83;;
11877;SDS011;5998;42.676;23.268;2023-12-22T12:47:30;1.93;;;1.70;;
11877;SDS011;5998;42.676;23.268;2023-12-22T12:49:58;2.87;;;2.53;;
11877;SDS011;5998;42.676;23.268;2023-12-22T12:52:25;2.90;;;2.20;;
11877;SDS011;5998;42.676;23.268;2023-12-22T12:54:52;2.70;;;2.00;;
11877;SDS011;5998;42.676;23.268;2023-12-22T12:57:19;2.90;;;2.10;;
11877;SDS011;5998;42.676;23.268;2023-12-22T12:59:46;2.10;;;1.90;;
11877;SDS011;5998;42.676;23.268;2023-12-22T13:02:14;1.90;;;1.80;;
11877;SDS011;5998;42.676;23.268;2023-12-22T13:04:41;2.33;;;1.80;;
11877;SDS011;5998;42.676;23.268;2023-12-22T13:07:10;5.17;;;2.10;;
11877;SDS011;5998;42.676;23.268;2023-12-22T13:09:38;1.70;;;1.60;;
11877;SDS011;5998;42.676;23.268;2023-12-22T13:12:07;1.43;;;1.37;;
11877;SDS011;5998;42.676;23.268;2023-12-22T13:14:34;2.00;;;1.80;;
11877;SDS011;5998;42.676;23.268;2023-12-22T13:17:00;2.00;;;1.80;;
11877;SDS011;5998;42.676;23.268;2023-12-22T13:19:27;2.07;;;1.87;;
11877;SDS011;5998;42.676;23.268;2023-12-22T13:21:54;1.67;;;1.53;;
11877;SDS011;5998;42.676;23.268;2023-12-22T13:24:23;1.80;;;1.70;;
11877;SDS011;5998;42.676;23.268;2023-12-22T13:26:58;2.10;;;1.90;;
11877;SDS011;5998;42.676;23.268;2023-12-22T13:29:26;3.97;;;1.90;;
11877;SDS011;5998;42.676;23.268;2023-12-22T13:31:53;1.80;;;1.70;;
11877;SDS011;5998;42.676;23.268;2023-12-22T13:34:20;2.33;;;2.13;;
11877;SDS011;5998;42.676;23.268;2023-12-22T13:36:47;2.87;;;2.07;;
11877;SDS011;5998;42.676;23.268;2023-12-22T13:39:14;2.63;;;2.00;;
11877;SDS011;5998;42.676;23.268;2023-12-22T13:41:43;2.10;;;1.90;;
11877;SDS011;5998;42.676;23.268;2023-12-22T13:44:11;2.30;;;2.10;;
11877;SDS011;5998;42.676;23.268;2023-12-22T13:46:38;3.30;;;2.30;;
11877;SDS011;5998;42.676;23.268;2023-12-22T13:49:06;2.77;;;2.07;;
11877;SDS011;5998;42.676;23.268;2023-12-22T13:51:40;2.17;;;1.97;;
11877;SDS011;5998;42.676;23.268;2023-12-22T13:54:07;2.33;;;2.13;;
11877;SDS011;5998;42.676;23.268;2023-12-22T13:56:34;1.83;;;1.73;;
11877;SDS011;5998;42.676;23.268;2023-12-22T13:59:03;2.80;;;2.03;;
11877;SDS011;5998;42.676;23.268;2023-12-22T14:01:30;2.00;;;1.80;;
11877;SDS011;5998;42.676;23.268;2023-12-22T14:03:57;2.73;;;1.73;;
11877;SDS011;5998;42.676;23.268;2023-12-22T14:06:24;1.87;;;1.77;;
11877;SDS011;5998;42.676;23.268;2023-12-22T14:08:51;1.63;;;1.53;;
11877;SDS011;5998;42.676;23.268;2023-12-22T14:11:18;2.70;;;1.70;;
11877;SDS011;5998;42.676;23.268;2023-12-22T14:13:45;1.73;;;1.30;;
11877;SDS011;5998;42.676;23.268;2023-12-22T14:16:13;0.93;;;0.93;;
11877;SDS011;5998;42.676;23.268;2023-12-22T14:18:40;1.80;;;1.70;;
11877;SDS011;5998;42.676;23.268;2023-12-22T14:21:07;1.87;;;1.50;;
11877;SDS011;5998;42.676;23.268;2023-12-22T14:23:33;2.87;;;1.43;;
11877;SDS011;5998;42.676;23.268;2023-12-22T14:26:00;2.17;;;1.40;;
11877;SDS011;5998;42.676;23.268;2023-12-22T14:28:27;1.97;;;1.50;;
11877;SDS011;5998;42.676;23.268;2023-12-22T14:30:53;1.70;;;1.60;;
11877;SDS011;5998;42.676;23.268;2023-12-22T14:33:23;3.23;;;1.60;;
11877;SDS011;5998;42.676;23.268;2023-12-22T14:35:50;3.93;;;2.53;;